UKKK/IEV METAR and TAF weather

Enter ICAO airport designator
Station Type Date Time Source
UKKK METAR 2022/01/29 01:30 UTC NOAA

UKKK 290130Z 29007MPS 9000 -SN BKN008 OVC016 01/00 Q1005 NOSIG


Station Type Date Time Source
UKKK Decoded METAR 2022/01/29 01:30 UTC NOAA

Kyiv, Ukraine (UKKK) 50-24N 030-34E 167M
Jan 28, 2022 - 08:30 PM EST / 2022.01.29 0130 UTC
Wind: from the WNW (290 degrees) at 16 MPH (14 KT):0
Visibility: 5 mile(s):0
Sky conditions: overcast
Weather: light snow
Temperature: 33 F (1 C)
Windchill: 23 F (-5 C):1
Dew Point: 32 F (0 C)
Relative Humidity: 93%
Pressure (altimeter): 29.68 in. Hg (1005 hPa)
ob: UKKK 290130Z 29007MPS 9000 -SN BKN008 OVC016 01/00 Q1005 NOSIG
cycle: 1

Station Type Date Time Source
UKKK TAF 2022/01/28 19:48 UTC NOAA

TAF TAF
AMD UKKK 281940Z 2819/2918 25006G12MPS 4000 -SN OVC003 TX01/2819Z TNM03/2918Z
TEMPO 2819/2824 28008G14MPS 1000 SHSNRA BKN002 BKN010CB
BECMG 2900/2901 31008G14MPS OVC005
TEMPO 2901/2910 31010G16MPS 1000 SHSN BLSN BKN002 BKN010CB
BECMG 2910/2911 30006G12MPS 9999 NSW BKN010
TEMPO 2911/2918 2100 -SHSN BKN005 BKN010CB

Example: see airport list